sensor_id;sensor_type;location;lat;lon;timestamp;temperature;humidity
64561;DHT22;50960;46.838;16.838;2022-10-23T03:02:50;9.30;99.90
64561;DHT22;50960;46.838;16.838;2022-10-23T03:05:22;9.10;99.90
64561;DHT22;50960;46.838;16.838;2022-10-23T03:07:49;9.00;99.90
64561;DHT22;50960;46.838;16.838;2022-10-23T03:10:16;8.90;99.90
64561;DHT22;50960;46.838;16.838;2022-10-23T03:12:43;8.90;99.90
64561;DHT22;50960;46.838;16.838;2022-10-23T03:15:10;8.90;99.90
64561;DHT22;50960;46.838;16.838;2022-10-23T03:17:37;8.90;99.90
64561;DHT22;50960;46.838;16.838;2022-10-23T03:20:05;8.90;99.90
64561;DHT22;50960;46.838;16.838;2022-10-23T03:22:31;8.80;99.90
64561;DHT22;50960;46.838;16.838;2022-10-23T03:24:57;8.80;99.90
64561;DHT22;50960;46.838;16.838;2022-10-23T03:27:24;8.80;99.90
64561;DHT22;50960;46.838;16.838;2022-10-23T03:29:50;8.70;99.90
64561;DHT22;50960;46.838;16.838;2022-10-23T03:32:16;8.70;99.90
64561;DHT22;50960;46.838;16.838;2022-10-23T03:34:42;8.60;99.90
64561;DHT22;50960;46.838;16.838;2022-10-23T03:37:09;8.60;99.90
64561;DHT22;50960;46.838;16.838;2022-10-23T03:39:35;8.60;99.90
64561;DHT22;50960;46.838;16.838;2022-10-23T03:42:01;8.50;99.90
64561;DHT22;50960;46.838;16.838;2022-10-23T03:44:27;8.50;99.90
64561;DHT22;50960;46.838;16.838;2022-10-23T03:46:56;8.50;99.90
64561;DHT22;50960;46.838;16.838;2022-10-23T03:49:22;8.40;99.90
64561;DHT22;50960;46.838;16.838;2022-10-23T03:51:49;8.40;99.90
64561;DHT22;50960;46.838;16.838;2022-10-23T03:54:27;8.30;99.90
64561;DHT22;50960;46.838;16.838;2022-10-23T03:56:55;8.30;99.90
64561;DHT22;50960;46.838;16.838;2022-10-23T03:59:21;8.20;99.90
64561;DHT22;50960;46.838;16.838;2022-10-23T04:01:48;8.20;99.90
64561;DHT22;50960;46.838;16.838;2022-10-23T04:04:14;8.20;99.90
64561;DHT22;50960;46.838;16.838;2022-10-23T04:06:40;8.10;99.90
64561;DHT22;50960;46.838;16.838;2022-10-23T04:09:07;8.10;99.90
64561;DHT22;50960;46.838;16.838;2022-10-23T04:11:33;8.10;99.90
64561;DHT22;50960;46.838;16.838;2022-10-23T04:13:59;8.00;99.90
64561;DHT22;50960;46.838;16.838;2022-10-23T04:16:26;8.00;99.90
64561;DHT22;50960;46.838;16.838;2022-10-23T04:18:52;8.00;99.90
64561;DHT22;50960;46.838;16.838;2022-10-23T04:21:18;8.00;99.90
64561;DHT22;50960;46.838;16.838;2022-10-23T04:23:45;8.00;99.90
64561;DHT22;50960;46.838;16.838;2022-10-23T04:26:11;7.90;99.90
64561;DHT22;50960;46.838;16.838;2022-10-23T04:28:38;7.90;99.90
64561;DHT22;50960;46.838;16.838;2022-10-23T04:31:04;7.90;99.90
64561;DHT22;50960;46.838;16.838;2022-10-23T04:33:30;7.90;99.90
64561;DHT22;50960;46.838;16.838;2022-10-23T04:35:56;7.90;99.90
64561;DHT22;50960;46.838;16.838;2022-10-23T04:38:22;7.90;99.90
64561;DHT22;50960;46.838;16.838;2022-10-23T04:40:49;7.90;99.90
64561;DHT22;50960;46.838;16.838;2022-10-23T04:43:15;7.80;99.90
64561;DHT22;50960;46.838;16.838;2022-10-23T04:45:41;7.80;99.90
64561;DHT22;50960;46.838;16.838;2022-10-23T04:48:07;7.80;99.90
64561;DHT22;50960;46.838;16.838;2022-10-23T04:50:33;7.70;99.90
64561;DHT22;50960;46.838;16.838;2022-10-23T04:53:00;7.70;99.90
64561;DHT22;50960;46.838;16.838;2022-10-23T04:55:26;7.80;99.90
64561;DHT22;50960;46.838;16.838;2022-10-23T04:57:52;7.80;99.90
64561;DHT22;50960;46.838;16.838;2022-10-23T05:00:18;7.70;99.90
64561;DHT22;50960;46.838;16.838;2022-10-23T05:02:45;7.70;99.90
64561;DHT22;50960;46.838;16.838;2022-10-23T05:05:11;7.80;99.90
64561;DHT22;50960;46.838;16.838;2022-10-23T05:07:38;7.80;99.90
64561;DHT22;50960;46.838;16.838;2022-10-23T05:10:05;7.80;99.90
64561;DHT22;50960;46.838;16.838;2022-10-23T05:12:31;7.90;99.90
64561;DHT22;50960;46.838;16.838;2022-10-23T05:14:58;7.90;99.90
64561;DHT22;50960;46.838;16.838;2022-10-23T05:17:35;7.90;99.90
64561;DHT22;50960;46.838;16.838;2022-10-23T05:20:06;7.90;99.90
64561;DHT22;50960;46.838;16.838;2022-10-23T05:22:36;8.00;99.90
64561;DHT22;50960;46.838;16.838;2022-10-23T05:25:04;8.10;99.90
64561;DHT22;50960;46.838;16.838;2022-10-23T05:27:30;8.10;99.90
64561;DHT22;50960;46.838;16.838;2022-10-23T05:29:56;8.20;99.90
64561;DHT22;50960;46.838;16.838;2022-10-23T05:32:24;8.20;99.90
64561;DHT22;50960;46.838;16.838;2022-10-23T05:34:53;8.20;99.90
64561;DHT22;50960;46.838;16.838;2022-10-23T05:37:19;8.30;99.90
64561;DHT22;50960;46.838;16.838;2022-10-23T05:39:46;8.30;99.90
64561;DHT22;50960;46.838;16.838;2022-10-23T05:42:12;8.40;99.90
64561;DHT22;50960;46.838;16.838;2022-10-23T05:44:38;8.40;99.90
64561;DHT22;50960;46.838;16.838;2022-10-23T05:47:06;8.40;99.90
64561;DHT22;50960;46.838;16.838;2022-10-23T05:49:32;8.50;99.90
64561;DHT22;50960;46.838;16.838;2022-10-23T05:51:59;8.50;99.90
64561;DHT22;50960;46.838;16.838;2022-10-23T05:54:25;8.60;99.90
64561;DHT22;50960;46.838;16.838;2022-10-23T05:56:51;8.70;99.90
64561;DHT22;50960;46.838;16.838;2022-10-23T05:59:17;8.70;99.90
64561;DHT22;50960;46.838;16.838;2022-10-23T06:01:44;8.80;99.90
64561;DHT22;50960;46.838;16.838;2022-10-23T06:04:10;8.90;99.90
64561;DHT22;50960;46.838;16.838;2022-10-23T06:06:36;8.90;99.90
64561;DHT22;50960;46.838;16.838;2022-10-23T06:09:03;9.00;99.90
64561;DHT22;50960;46.838;16.838;2022-10-23T06:11:29;9.10;99.90
64561;DHT22;50960;46.838;16.838;2022-10-23T06:13:55;9.10;99.90
64561;DHT22;50960;46.838;16.838;2022-10-23T06:16:23;9.20;99.90
64561;DHT22;50960;46.838;16.838;2022-10-23T06:18:53;9.20;99.90
64561;DHT22;50960;46.838;16.838;2022-10-23T06:21:19;9.30;99.90
64561;DHT22;50960;46.838;16.838;2022-10-23T06:23:46;9.40;99.90
64561;DHT22;50960;46.838;16.838;2022-10-23T06:26:14;9.50;99.90
64561;DHT22;50960;46.838;16.838;2022-10-23T06:28:41;9.60;99.90
64561;DHT22;50960;46.838;16.838;2022-10-23T06:31:11;9.60;99.90
64561;DHT22;50960;46.838;16.838;2022-10-23T06:33:37;9.60;99.90
64561;DHT22;50960;46.838;16.838;2022-10-23T06:36:04;9.70;99.90
64561;DHT22;50960;46.838;16.838;2022-10-23T06:38:31;9.80;99.90
64561;DHT22;50960;46.838;16.838;2022-10-23T06:41:03;9.90;99.90
64561;DHT22;50960;46.838;16.838;2022-10-23T06:43:30;9.90;99.90
64561;DHT22;50960;46.838;16.838;2022-10-23T06:45:59;10.20;99.90
64561;DHT22;50960;46.838;16.838;2022-10-23T06:48:26;10.30;99.90
64561;DHT22;50960;46.838;16.838;2022-10-23T06:50:52;10.50;99.90
64561;DHT22;50960;46.838;16.838;2022-10-23T06:53:19;10.60;99.90
64561;DHT22;50960;46.838;16.838;2022-10-23T06:55:45;10.70;99.90
64561;DHT22;50960;46.838;16.838;2022-10-23T06:58:11;10.90;99.90
64561;DHT22;50960;46.838;16.838;2022-10-23T07:00:38;11.00;99.90
64561;DHT22;50960;46.838;16.838;2022-10-23T07:03:05;11.10;99.90
64561;DHT22;50960;46.838;16.838;2022-10-23T07:05:31;11.20;99.90
64561;DHT22;50960;46.838;16.838;2022-10-23T07:07:57;11.20;99.90
64561;DHT22;50960;46.838;16.838;2022-10-23T07:10:24;11.20;99.90
64561;DHT22;50960;46.838;16.838;2022-10-23T07:12:50;11.20;99.90
64561;DHT22;50960;46.838;16.838;2022-10-23T07:15:16;11.30;99.90
64561;DHT22;50960;46.838;16.838;2022-10-23T07:17:42;11.30;99.90
64561;DHT22;50960;46.838;16.838;2022-10-23T07:20:09;11.30;99.90
64561;DHT22;50960;46.838;16.838;2022-10-23T07:22:35;11.20;99.90
64561;DHT22;50960;46.838;16.838;2022-10-23T07:25:01;11.30;99.90
64561;DHT22;50960;46.838;16.838;2022-10-23T07:27:27;11.50;99.90
64561;DHT22;50960;46.838;16.838;2022-10-23T07:29:54;11.70;99.90
64561;DHT22;50960;46.838;16.838;2022-10-23T07:32:20;11.80;99.90
64561;DHT22;50960;46.838;16.838;2022-10-23T07:34:48;11.80;99.90
64561;DHT22;50960;46.838;16.838;2022-10-23T07:37:15;11.80;99.90
64561;DHT22;50960;46.838;16.838;2022-10-23T07:39:41;11.90;99.90
64561;DHT22;50960;46.838;16.838;2022-10-23T07:42:08;12.00;99.90
64561;DHT22;50960;46.838;16.838;2022-10-23T07:44:34;12.00;99.90
64561;DHT22;50960;46.838;16.838;2022-10-23T07:47:01;12.00;99.90
64561;DHT22;50960;46.838;16.838;2022-10-23T07:49:27;12.00;99.90
64561;DHT22;50960;46.838;16.838;2022-10-23T07:51:53;12.10;99.90
64561;DHT22;50960;46.838;16.838;2022-10-23T07:54:20;12.20;99.90
64561;DHT22;50960;46.838;16.838;2022-10-23T07:56:46;12.30;99.90
64561;DHT22;50960;46.838;16.838;2022-10-23T07:59:12;12.30;99.90
64561;DHT22;50960;46.838;16.838;2022-10-23T08:01:40;12.30;99.90
64561;DHT22;50960;46.838;16.838;2022-10-23T08:04:08;12.30;99.90
64561;DHT22;50960;46.838;16.838;2022-10-23T08:06:35;12.30;99.90
64561;DHT22;50960;46.838;16.838;2022-10-23T08:09:02;12.40;99.90
64561;DHT22;50960;46.838;16.838;2022-10-23T08:11:28;11.80;99.90
64561;DHT22;50960;46.838;16.838;2022-10-23T08:14:01;12.60;99.90
64561;DHT22;50960;46.838;16.838;2022-10-23T08:16:32;12.70;99.90
64561;DHT22;50960;46.838;16.838;2022-10-23T08:18:59;12.70;99.90
64561;DHT22;50960;46.838;16.838;2022-10-23T08:33:40;13.60;99.90
64561;DHT22;50960;46.838;16.838;2022-10-23T08:36:22;13.60;99.90
64561;DHT22;50960;46.838;16.838;2022-10-23T08:38:52;13.70;99.90
64561;DHT22;50960;46.838;16.838;2022-10-23T08:41:32;13.70;99.90
64561;DHT22;50960;46.838;16.838;2022-10-23T08:44:54;13.60;99.90
64561;DHT22;50960;46.838;16.838;2022-10-23T08:47:17;13.40;99.90
64561;DHT22;50960;46.838;16.838;2022-10-23T08:55:16;13.40;99.90
64561;DHT22;50960;46.838;16.838;2022-10-23T08:58:00;13.50;99.90
64561;DHT22;50960;46.838;16.838;2022-10-23T09:00:29;13.60;99.90
64561;DHT22;50960;46.838;16.838;2022-10-23T09:02:55;13.60;99.90
64561;DHT22;50960;46.838;16.838;2022-10-23T09:06:24;13.60;99.90
64561;DHT22;50960;46.838;16.838;2022-10-23T09:16:51;14.30;99.90
64561;DHT22;50960;46.838;16.838;2022-10-23T09:19:23;14.30;99.90
64561;DHT22;50960;46.838;16.838;2022-10-23T09:21:53;14.30;99.90
64561;DHT22;50960;46.838;16.838;2022-10-23T09:24:22;14.40;99.90
64561;DHT22;50960;46.838;16.838;2022-10-23T09:26:51;14.40;99.90
64561;DHT22;50960;46.838;16.838;2022-10-23T09:29:23;14.40;99.90
64561;DHT22;50960;46.838;16.838;2022-10-23T09:31:51;14.40;99.90
64561;DHT22;50960;46.838;16.838;2022-10-23T09:34:21;14.50;99.90
64561;DHT22;50960;46.838;16.838;2022-10-23T09:36:50;14.40;99.90
64561;DHT22;50960;46.838;16.838;2022-10-23T09:39:27;14.40;99.90
64561;DHT22;50960;46.838;16.838;2022-10-23T09:41:55;14.50;99.90
64561;DHT22;50960;46.838;16.838;2022-10-23T09:44:32;14.50;99.90
64561;DHT22;50960;46.838;16.838;2022-10-23T09:49:31;14.60;99.90
64561;DHT22;50960;46.838;16.838;2022-10-23T09:57:39;15.30;99.90
64561;DHT22;50960;46.838;16.838;2022-10-23T10:00:19;15.40;99.90
64561;DHT22;50960;46.838;16.838;2022-10-23T10:02:59;15.30;99.90
64561;DHT22;50960;46.838;16.838;2022-10-23T10:05:32;15.60;99.90
64561;DHT22;50960;46.838;16.838;2022-10-23T10:08:09;15.60;99.90
64561;DHT22;50960;46.838;16.838;2022-10-23T10:10:44;15.70;99.90
64561;DHT22;50960;46.838;16.838;2022-10-23T10:18:35;15.90;98.70
64561;DHT22;50960;46.838;16.838;2022-10-23T10:21:27;16.50;98.30
64561;DHT22;50960;46.838;16.838;2022-10-23T10:24:01;16.40;98.30
64561;DHT22;50960;46.838;16.838;2022-10-23T10:34:29;16.30;97.30
64561;DHT22;50960;46.838;16.838;2022-10-23T10:37:26;16.50;97.00
64561;DHT22;50960;46.838;16.838;2022-10-23T10:40:27;16.60;99.90
64561;DHT22;50960;46.838;16.838;2022-10-23T10:45:59;16.30;98.40
64561;DHT22;50960;46.838;16.838;2022-10-23T10:48:54;16.40;99.90
64561;DHT22;50960;46.838;16.838;2022-10-23T10:51:35;16.20;98.40
64561;DHT22;50960;46.838;16.838;2022-10-23T10:54:20;16.40;98.80
64561;DHT22;50960;46.838;16.838;2022-10-23T10:56:51;16.40;97.90
64561;DHT22;50960;46.838;16.838;2022-10-23T10:59:35;16.70;97.50
64561;DHT22;50960;46.838;16.838;2022-10-23T11:02:26;16.50;97.00
64561;DHT22;50960;46.838;16.838;2022-10-23T11:05:59;16.30;99.90
64561;DHT22;50960;46.838;16.838;2022-10-23T11:08:18;16.80;99.90
64561;DHT22;50960;46.838;16.838;2022-10-23T11:10:53;16.70;96.70
64561;DHT22;50960;46.838;16.838;2022-10-23T11:13:41;17.00;97.00
64561;DHT22;50960;46.838;16.838;2022-10-23T11:18:35;17.50;95.70
64561;DHT22;50960;46.838;16.838;2022-10-23T11:27:12;17.90;94.50
64561;DHT22;50960;46.838;16.838;2022-10-23T11:38:25;18.10;92.00
64561;DHT22;50960;46.838;16.838;2022-10-23T11:40:59;18.10;92.60
64561;DHT22;50960;46.838;16.838;2022-10-23T11:43:44;18.10;93.10
64561;DHT22;50960;46.838;16.838;2022-10-23T11:46:35;18.20;92.90
64561;DHT22;50960;46.838;16.838;2022-10-23T11:49:02;18.00;93.30
64561;DHT22;50960;46.838;16.838;2022-10-23T11:51:34;18.00;93.10
64561;DHT22;50960;46.838;16.838;2022-10-23T11:54:22;17.80;94.40
64561;DHT22;50960;46.838;16.838;2022-10-23T11:57:22;17.80;94.00
64561;DHT22;50960;46.838;16.838;2022-10-23T11:59:54;17.70;94.30
64561;DHT22;50960;46.838;16.838;2022-10-23T12:02:30;17.70;94.50
64561;DHT22;50960;46.838;16.838;2022-10-23T12:05:05;17.90;94.60
64561;DHT22;50960;46.838;16.838;2022-10-23T12:07:35;17.90;93.80
64561;DHT22;50960;46.838;16.838;2022-10-23T12:10:05;18.00;93.70
64561;DHT22;50960;46.838;16.838;2022-10-23T12:12:37;17.90;93.80
64561;DHT22;50960;46.838;16.838;2022-10-23T12:15:18;17.70;94.40
64561;DHT22;50960;46.838;16.838;2022-10-23T12:17:47;17.70;94.30
64561;DHT22;50960;46.838;16.838;2022-10-23T12:25:50;17.60;95.00
64561;DHT22;50960;46.838;16.838;2022-10-23T12:28:31;17.50;95.50
64561;DHT22;50960;46.838;16.838;2022-10-23T12:33:27;17.70;95.50
64561;DHT22;50960;46.838;16.838;2022-10-23T12:38:48;17.70;95.00
64561;DHT22;50960;46.838;16.838;2022-10-23T12:41:27;17.80;95.30
64561;DHT22;50960;46.838;16.838;2022-10-23T12:44:03;17.90;95.20
64561;DHT22;50960;46.838;16.838;2022-10-23T12:46:31;17.90;95.00
64561;DHT22;50960;46.838;16.838;2022-10-23T12:48:59;17.80;95.20
64561;DHT22;50960;46.838;16.838;2022-10-23T12:51:32;17.70;95.50
64561;DHT22;50960;46.838;16.838;2022-10-23T12:54:00;17.70;95.70
64561;DHT22;50960;46.838;16.838;2022-10-23T12:56:33;17.70;95.80
64561;DHT22;50960;46.838;16.838;2022-10-23T12:58:59;17.90;95.50
64561;DHT22;50960;46.838;16.838;2022-10-23T13:01:29;18.00;95.70
64561;DHT22;50960;46.838;16.838;2022-10-23T13:06:51;18.20;95.00
64561;DHT22;50960;46.838;16.838;2022-10-23T13:09:32;18.30;95.00
64561;DHT22;50960;46.838;16.838;2022-10-23T13:12:01;18.40;94.80
64561;DHT22;50960;46.838;16.838;2022-10-23T13:14:39;18.50;94.70
64561;DHT22;50960;46.838;16.838;2022-10-23T13:17:08;18.50;94.50
64561;DHT22;50960;46.838;16.838;2022-10-23T13:19:36;18.80;94.00
64561;DHT22;50960;46.838;16.838;2022-10-23T13:22:05;18.80;93.70
64561;DHT22;50960;46.838;16.838;2022-10-23T13:24:40;18.80;93.60
64561;DHT22;50960;46.838;16.838;2022-10-23T13:27:29;18.80;94.60
64561;DHT22;50960;46.838;16.838;2022-10-23T13:29:56;18.90;93.70
64561;DHT22;50960;46.838;16.838;2022-10-23T13:32:24;18.90;93.70
64561;DHT22;50960;46.838;16.838;2022-10-23T13:34:52;19.00;93.70
64561;DHT22;50960;46.838;16.838;2022-10-23T13:37:22;19.30;93.30
64561;DHT22;50960;46.838;16.838;2022-10-23T13:40:02;19.60;92.60
64561;DHT22;50960;46.838;16.838;2022-10-23T13:42:30;19.50;92.30
64561;DHT22;50960;46.838;16.838;2022-10-23T13:44:56;19.50;92.20
64561;DHT22;50960;46.838;16.838;2022-10-23T13:47:22;19.50;92.30
64561;DHT22;50960;46.838;16.838;2022-10-23T13:49:48;19.60;92.20
64561;DHT22;50960;46.838;16.838;2022-10-23T13:52:18;19.50;92.10
64561;DHT22;50960;46.838;16.838;2022-10-23T13:54:45;19.30;92.90
64561;DHT22;50960;46.838;16.838;2022-10-23T13:57:13;19.50;93.30
64561;DHT22;50960;46.838;16.838;2022-10-23T13:59:41;19.40;92.70
64561;DHT22;50960;46.838;16.838;2022-10-23T14:02:33;19.30;93.30
64561;DHT22;50960;46.838;16.838;2022-10-23T14:05:00;19.30;93.40
64561;DHT22;50960;46.838;16.838;2022-10-23T14:07:26;19.20;93.70
64561;DHT22;50960;46.838;16.838;2022-10-23T14:09:52;19.20;94.00
64561;DHT22;50960;46.838;16.838;2022-10-23T14:12:18;19.40;93.60
64561;DHT22;50960;46.838;16.838;2022-10-23T14:14:49;19.50;93.30
64561;DHT22;50960;46.838;16.838;2022-10-23T14:17:16;19.20;93.50
64561;DHT22;50960;46.838;16.838;2022-10-23T14:19:42;19.30;93.70
64561;DHT22;50960;46.838;16.838;2022-10-23T14:22:08;19.30;93.70
64561;DHT22;50960;46.838;16.838;2022-10-23T14:24:35;19.40;93.70
64561;DHT22;50960;46.838;16.838;2022-10-23T14:27:01;19.40;93.60
64561;DHT22;50960;46.838;16.838;2022-10-23T14:29:27;19.30;93.70
64561;DHT22;50960;46.838;16.838;2022-10-23T14:31:54;19.40;93.80
64561;DHT22;50960;46.838;16.838;2022-10-23T14:34:20;19.50;93.60
64561;DHT22;50960;46.838;16.838;2022-10-23T14:36:46;19.70;93.50
64561;DHT22;50960;46.838;16.838;2022-10-23T14:39:12;19.70;93.10
64561;DHT22;50960;46.838;16.838;2022-10-23T14:41:39;19.80;92.70
64561;DHT22;50960;46.838;16.838;2022-10-23T14:44:06;19.80;92.90
64561;DHT22;50960;46.838;16.838;2022-10-23T14:46:32;20.00;93.00
64561;DHT22;50960;46.838;16.838;2022-10-23T14:49:00;20.50;91.80
64561;DHT22;50960;46.838;16.838;2022-10-23T14:51:28;20.80;90.60
64561;DHT22;50960;46.838;16.838;2022-10-23T14:54:00;20.80;90.90
64561;DHT22;50960;46.838;16.838;2022-10-23T14:56:28;21.10;90.00
64561;DHT22;50960;46.838;16.838;2022-10-23T14:58:55;21.20;88.60
64561;DHT22;50960;46.838;16.838;2022-10-23T15:01:32;21.00;88.60
64561;DHT22;50960;46.838;16.838;2022-10-23T15:03:59;20.80;89.70
64561;DHT22;50960;46.838;16.838;2022-10-23T15:06:25;20.80;90.30
64561;DHT22;50960;46.838;16.838;2022-10-23T15:08:53;20.50;90.60
64561;DHT22;50960;46.838;16.838;2022-10-23T15:11:23;20.20;91.30
64561;DHT22;50960;46.838;16.838;2022-10-23T15:13:52;20.10;91.90
64561;DHT22;50960;46.838;16.838;2022-10-23T15:16:21;19.80;92.60
64561;DHT22;50960;46.838;16.838;2022-10-23T15:18:47;19.60;93.70
64561;DHT22;50960;46.838;16.838;2022-10-23T15:21:14;19.40;94.00
64561;DHT22;50960;46.838;16.838;2022-10-23T15:23:43;19.20;94.60
64561;DHT22;50960;46.838;16.838;2022-10-23T15:26:20;19.10;95.20
64561;DHT22;50960;46.838;16.838;2022-10-23T15:28:56;18.90;95.70
64561;DHT22;50960;46.838;16.838;2022-10-23T15:31:50;18.70;96.30
64561;DHT22;50960;46.838;16.838;2022-10-23T15:34:20;18.50;97.00
64561;DHT22;50960;46.838;16.838;2022-10-23T15:36:48;18.40;97.50
64561;DHT22;50960;46.838;16.838;2022-10-23T15:39:17;18.20;98.50
64561;DHT22;50960;46.838;16.838;2022-10-23T15:41:44;18.10;98.90
64561;DHT22;50960;46.838;16.838;2022-10-23T15:44:15;18.00;99.40
64561;DHT22;50960;46.838;16.838;2022-10-23T15:46:42;17.90;99.40
64561;DHT22;50960;46.838;16.838;2022-10-23T15:49:09;17.80;99.90
64561;DHT22;50960;46.838;16.838;2022-10-23T15:51:36;17.50;99.90
64561;DHT22;50960;46.838;16.838;2022-10-23T15:54:04;17.40;99.90
64561;DHT22;50960;46.838;16.838;2022-10-23T15:56:31;17.20;99.90
64561;DHT22;50960;46.838;16.838;2022-10-23T15:58:57;17.10;99.90
64561;DHT22;50960;46.838;16.838;2022-10-23T16:01:23;17.00;99.90
64561;DHT22;50960;46.838;16.838;2022-10-23T16:03:49;16.80;99.90
64561;DHT22;50960;46.838;16.838;2022-10-23T16:06:17;16.80;99.90
64561;DHT22;50960;46.838;16.838;2022-10-23T16:08:47;16.70;99.90
64561;DHT22;50960;46.838;16.838;2022-10-23T16:11:17;16.60;99.90
64561;DHT22;50960;46.838;16.838;2022-10-23T16:13:44;16.50;99.90
64561;DHT22;50960;46.838;16.838;2022-10-23T16:16:11;16.40;99.90
64561;DHT22;50960;46.838;16.838;2022-10-23T16:18:38;16.30;99.90
64561;DHT22;50960;46.838;16.838;2022-10-23T16:21:05;16.30;99.90
64561;DHT22;50960;46.838;16.838;2022-10-23T16:23:32;16.20;99.90
64561;DHT22;50960;46.838;16.838;2022-10-23T16:26:03;16.20;99.90
64561;DHT22;50960;46.838;16.838;2022-10-23T16:28:30;16.10;99.90
64561;DHT22;50960;46.838;16.838;2022-10-23T16:30:56;16.10;99.90
64561;DHT22;50960;46.838;16.838;2022-10-23T16:33:23;16.00;99.90
64561;DHT22;50960;46.838;16.838;2022-10-23T16:35:49;15.90;99.90
64561;DHT22;50960;46.838;16.838;2022-10-23T16:38:15;15.90;99.90
64561;DHT22;50960;46.838;16.838;2022-10-23T16:40:41;15.80;99.90
64561;DHT22;50960;46.838;16.838;2022-10-23T16:43:14;15.80;99.90
64561;DHT22;50960;46.838;16.838;2022-10-23T16:45:40;15.80;99.90
64561;DHT22;50960;46.838;16.838;2022-10-23T16:48:07;15.80;99.90
64561;DHT22;50960;46.838;16.838;2022-10-23T16:50:33;15.80;99.90
64561;DHT22;50960;46.838;16.838;2022-10-23T16:52:59;15.70;99.90
64561;DHT22;50960;46.838;16.838;2022-10-23T16:55:25;15.60;99.90
64561;DHT22;50960;46.838;16.838;2022-10-23T16:57:52;15.60;99.90
64561;DHT22;50960;46.838;16.838;2022-10-23T17:00:18;15.60;99.90
64561;DHT22;50960;46.838;16.838;2022-10-23T17:02:46;15.60;99.90
64561;DHT22;50960;46.838;16.838;2022-10-23T17:05:13;15.50;99.90
64561;DHT22;50960;46.838;16.838;2022-10-23T17:07:39;15.50;99.90
64561;DHT22;50960;46.838;16.838;2022-10-23T17:10:21;15.50;99.90
64561;DHT22;50960;46.838;16.838;2022-10-23T17:12:47;15.50;99.90
64561;DHT22;50960;46.838;16.838;2022-10-23T17:15:14;15.50;99.90
64561;DHT22;50960;46.838;16.838;2022-10-23T17:17:42;15.50;99.90
64561;DHT22;50960;46.838;16.838;2022-10-23T17:20:08;15.50;99.90
64561;DHT22;50960;46.838;16.838;2022-10-23T17:22:35;15.50;99.90
64561;DHT22;50960;46.838;16.838;2022-10-23T17:25:05;15.50;99.90
64561;DHT22;50960;46.838;16.838;2022-10-23T17:27:31;15.50;99.90
64561;DHT22;50960;46.838;16.838;2022-10-23T17:29:57;15.60;99.90
64561;DHT22;50960;46.838;16.838;2022-10-23T17:32:23;15.50;99.90
64561;DHT22;50960;46.838;16.838;2022-10-23T17:34:50;15.50;99.90
64561;DHT22;50960;46.838;16.838;2022-10-23T17:37:16;15.50;99.90
64561;DHT22;50960;46.838;16.838;2022-10-23T17:39:42;15.50;99.90
64561;DHT22;50960;46.838;16.838;2022-10-23T17:42:08;15.50;99.90
64561;DHT22;50960;46.838;16.838;2022-10-23T17:44:35;15.50;99.90
64561;DHT22;50960;46.838;16.838;2022-10-23T17:47:01;15.50;99.90
64561;DHT22;50960;46.838;16.838;2022-10-23T17:49:27;15.50;99.90
64561;DHT22;50960;46.838;16.838;2022-10-23T17:51:55;15.50;99.90
64561;DHT22;50960;46.838;16.838;2022-10-23T17:54:22;15.50;99.90
64561;DHT22;50960;46.838;16.838;2022-10-23T17:56:49;15.40;99.90
64561;DHT22;50960;46.838;16.838;2022-10-23T17:59:16;15.40;99.90
64561;DHT22;50960;46.838;16.838;2022-10-23T18:01:46;15.40;99.90
64561;DHT22;50960;46.838;16.838;2022-10-23T18:04:13;15.30;99.90
64561;DHT22;50960;46.838;16.838;2022-10-23T18:06:46;15.30;99.90
64561;DHT22;50960;46.838;16.838;2022-10-23T18:09:12;15.30;99.90
64561;DHT22;50960;46.838;16.838;2022-10-23T18:11:41;15.30;99.90
64561;DHT22;50960;46.838;16.838;2022-10-23T18:14:09;15.30;99.90
64561;DHT22;50960;46.838;16.838;2022-10-23T18:16:35;15.30;99.90
64561;DHT22;50960;46.838;16.838;2022-10-23T18:19:03;15.30;99.90
64561;DHT22;50960;46.838;16.838;2022-10-23T18:21:30;15.20;99.90
64561;DHT22;50960;46.838;16.838;2022-10-23T18:24:00;15.20;99.90
64561;DHT22;50960;46.838;16.838;2022-10-23T18:26:29;15.20;99.90
64561;DHT22;50960;46.838;16.838;2022-10-23T18:28:58;15.20;99.90
64561;DHT22;50960;46.838;16.838;2022-10-23T18:31:26;15.20;99.90
64561;DHT22;50960;46.838;16.838;2022-10-23T18:34:07;15.20;99.90
64561;DHT22;50960;46.838;16.838;2022-10-23T18:36:36;15.20;99.90
64561;DHT22;50960;46.838;16.838;2022-10-23T18:39:04;15.20;99.90
64561;DHT22;50960;46.838;16.838;2022-10-23T18:41:33;15.20;99.90
64561;DHT22;50960;46.838;16.838;2022-10-23T18:43:59;15.20;99.90
64561;DHT22;50960;46.838;16.838;2022-10-23T18:46:25;15.20;99.90
64561;DHT22;50960;46.838;16.838;2022-10-23T18:48:51;15.20;99.90
64561;DHT22;50960;46.838;16.838;2022-10-23T18:51:23;15.20;99.90
64561;DHT22;50960;46.838;16.838;2022-10-23T18:53:50;15.20;99.90
64561;DHT22;50960;46.838;16.838;2022-10-23T18:56:19;15.20;99.90
64561;DHT22;50960;46.838;16.838;2022-10-23T18:58:57;15.10;99.90
64561;DHT22;50960;46.838;16.838;2022-10-23T19:01:24;15.10;99.90
64561;DHT22;50960;46.838;16.838;2022-10-23T19:03:52;15.10;99.90
64561;DHT22;50960;46.838;16.838;2022-10-23T19:06:20;15.10;99.90
64561;DHT22;50960;46.838;16.838;2022-10-23T19:08:46;15.10;99.90
64561;DHT22;50960;46.838;16.838;2022-10-23T19:11:14;15.10;99.90
64561;DHT22;50960;46.838;16.838;2022-10-23T19:13:41;15.10;99.90
64561;DHT22;50960;46.838;16.838;2022-10-23T19:16:26;15.10;99.90
64561;DHT22;50960;46.838;16.838;2022-10-23T19:19:02;15.00;99.90
64561;DHT22;50960;46.838;16.838;2022-10-23T19:21:33;14.90;99.90
64561;DHT22;50960;46.838;16.838;2022-10-23T19:24:07;14.80;99.90
64561;DHT22;50960;46.838;16.838;2022-10-23T19:26:34;14.80;99.90
64561;DHT22;50960;46.838;16.838;2022-10-23T19:29:02;14.70;99.90
64561;DHT22;50960;46.838;16.838;2022-10-23T19:31:29;14.60;99.90
64561;DHT22;50960;46.838;16.838;2022-10-23T19:33:55;14.60;99.90
64561;DHT22;50960;46.838;16.838;2022-10-23T19:36:22;14.60;99.90
64561;DHT22;50960;46.838;16.838;2022-10-23T19:38:48;14.50;99.90
64561;DHT22;50960;46.838;16.838;2022-10-23T19:41:14;14.50;99.90
64561;DHT22;50960;46.838;16.838;2022-10-23T19:43:42;14.50;99.90
64561;DHT22;50960;46.838;16.838;2022-10-23T19:46:08;14.50;99.90
64561;DHT22;50960;46.838;16.838;2022-10-23T19:48:34;14.40;99.90
64561;DHT22;50960;46.838;16.838;2022-10-23T19:51:00;14.40;99.90
64561;DHT22;50960;46.838;16.838;2022-10-23T19:53:27;14.40;99.90
64561;DHT22;50960;46.838;16.838;2022-10-23T19:56:04;14.40;99.90
64561;DHT22;50960;46.838;16.838;2022-10-23T19:58:31;14.30;99.90